createdAt,value
2018-05-16T00:00:03.256Z,0.00
2018-05-16T00:01:03.152Z,0.00
2018-05-16T00:02:03.063Z,0.00
2018-05-16T00:03:02.958Z,0.00
2018-05-16T00:04:02.855Z,0.00
2018-05-16T00:05:02.763Z,0.00
2018-05-16T00:06:02.659Z,0.00
2018-05-16T00:07:02.571Z,0.00
2018-05-16T00:08:02.468Z,0.00
2018-05-16T00:09:02.364Z,0.00
2018-05-16T00:10:02.271Z,0.00
2018-05-16T00:11:02.169Z,0.00
2018-05-16T00:12:02.066Z,0.00
2018-05-16T00:13:02.003Z,0.00
2018-05-16T00:14:01.872Z,0.00
2018-05-16T00:15:01.780Z,0.00
2018-05-16T00:16:01.677Z,0.00
2018-05-16T00:17:01.575Z,0.00
2018-05-16T00:18:01.785Z,0.00
2018-05-16T00:19:01.380Z,0.00
2018-05-16T00:20:01.279Z,0.00
2018-05-16T00:21:01.186Z,0.00
2018-05-16T00:22:01.084Z,0.00
2018-05-16T00:23:00.980Z,0.00
2018-05-16T00:24:00.890Z,0.00
2018-05-16T00:25:00.785Z,0.00
2018-05-16T00:26:00.694Z,0.00
2018-05-16T00:27:00.591Z,0.00
2018-05-16T00:28:00.487Z,0.00
2018-05-16T00:29:00.397Z,0.00
2018-05-16T00:30:00.294Z,0.00
2018-05-16T00:31:00.190Z,0.00
2018-05-16T00:32:00.098Z,0.00
2018-05-16T00:32:59.997Z,0.00
2018-05-16T00:33:59.905Z,0.00
2018-05-16T00:34:59.802Z,0.00
2018-05-16T00:35:59.699Z,0.00
2018-05-16T00:36:59.607Z,0.00
2018-05-16T00:37:59.503Z,0.00
2018-05-16T00:38:59.404Z,0.00
2018-05-16T00:39:59.310Z,0.00
2018-05-16T00:40:59.209Z,0.00
2018-05-16T00:41:59.117Z,0.00
2018-05-16T00:42:59.013Z,0.00
2018-05-16T00:43:58.910Z,0.00
2018-05-16T00:44:58.819Z,0.00
2018-05-16T00:45:58.715Z,0.00
2018-05-16T00:46:58.613Z,0.00
2018-05-16T00:47:58.524Z,0.00
2018-05-16T00:48:58.417Z,0.00
2018-05-16T00:49:58.328Z,0.00
2018-05-16T00:50:58.248Z,0.00
2018-05-16T00:51:58.122Z,0.00
2018-05-16T00:52:58.029Z,0.00
2018-05-16T00:53:57.926Z,0.00
2018-05-16T00:54:57.824Z,0.00
2018-05-16T00:55:57.725Z,0.00
2018-05-16T00:56:57.630Z,0.00
2018-05-16T00:57:57.855Z,0.00
2018-05-16T00:58:57.434Z,0.00
2018-05-16T00:59:57.330Z,0.00
2018-05-16T01:00:57.241Z,0.00
2018-05-16T01:01:57.138Z,0.00
2018-05-16T01:02:57.048Z,0.00
2018-05-16T01:03:56.942Z,0.00
2018-05-16T01:04:56.840Z,0.00
2018-05-16T01:05:56.749Z,0.00
2018-05-16T01:06:56.645Z,0.00
2018-05-16T01:07:56.542Z,0.00
2018-05-16T01:08:56.451Z,0.00
2018-05-16T01:09:56.348Z,0.00
2018-05-16T01:10:56.246Z,0.00
2018-05-16T01:11:56.156Z,0.00
2018-05-16T01:12:56.051Z,0.00
2018-05-16T01:13:55.959Z,0.00
2018-05-16T01:14:55.856Z,0.00
2018-05-16T01:15:55.753Z,0.00
2018-05-16T01:16:55.663Z,0.00
2018-05-16T01:17:55.560Z,0.00
2018-05-16T01:18:55.481Z,0.00
2018-05-16T01:19:55.365Z,0.00
2018-05-16T01:20:55.262Z,0.00
2018-05-16T01:21:55.172Z,0.00
2018-05-16T01:22:55.073Z,0.00
2018-05-16T01:23:54.970Z,0.00
2018-05-16T01:24:54.871Z,0.00
2018-05-16T01:25:54.769Z,0.00
2018-05-16T01:26:54.684Z,0.00
2018-05-16T01:27:54.576Z,0.00
2018-05-16T01:28:54.473Z,0.00
2018-05-16T01:29:54.381Z,0.00
2018-05-16T01:30:54.278Z,0.00
2018-05-16T01:31:54.176Z,0.00
2018-05-16T01:32:54.087Z,0.00
2018-05-16T01:33:53.981Z,0.00
2018-05-16T01:34:53.889Z,0.00
2018-05-16T01:35:53.786Z,0.00
2018-05-16T01:36:53.683Z,0.00
2018-05-16T01:37:53.593Z,0.00
2018-05-16T01:38:53.490Z,0.00
2018-05-16T01:39:53.417Z,0.00
2018-05-16T01:40:53.301Z,0.00
2018-05-16T01:41:53.193Z,0.00
2018-05-16T01:42:53.102Z,0.00
2018-05-16T01:43:52.998Z,0.00
2018-05-16T01:44:52.898Z,0.00
2018-05-16T01:45:52.803Z,0.00
2018-05-16T01:46:52.699Z,0.00
2018-05-16T01:47:52.610Z,0.00
2018-05-16T01:48:52.507Z,0.00
2018-05-16T01:49:52.404Z,0.00
2018-05-16T01:50:52.311Z,0.00
2018-05-16T01:51:52.208Z,0.00
2018-05-16T01:52:52.106Z,0.00
2018-05-16T01:53:52.016Z,0.00
2018-05-16T01:54:51.916Z,0.00
2018-05-16T01:55:51.821Z,0.00
2018-05-16T01:56:51.731Z,0.00
2018-05-16T01:57:51.619Z,0.00
2018-05-16T01:58:51.523Z,0.00
2018-05-16T01:59:51.420Z,0.00
2018-05-16T02:00:51.328Z,0.00
2018-05-16T02:01:51.225Z,0.00
2018-05-16T02:02:51.126Z,0.00
2018-05-16T02:03:51.031Z,0.00
2018-05-16T02:04:50.929Z,0.00
2018-05-16T02:05:50.826Z,0.00
2018-05-16T02:06:50.737Z,0.00
2018-05-16T02:07:50.630Z,0.00
2018-05-16T02:08:50.540Z,0.00
2018-05-16T02:09:50.437Z,0.00
2018-05-16T02:10:50.333Z,0.00
2018-05-16T02:11:50.256Z,0.00
2018-05-16T02:12:50.138Z,0.00
2018-05-16T02:13:50.050Z,0.00
2018-05-16T02:14:49.948Z,0.00
2018-05-16T02:15:49.850Z,0.00
2018-05-16T02:16:49.750Z,0.00
2018-05-16T02:17:49.947Z,0.00
2018-05-16T02:18:49.545Z,0.00
2018-05-16T02:19:49.457Z,0.00
2018-05-16T02:20:49.351Z,0.00
2018-05-16T02:21:49.260Z,0.00
2018-05-16T02:22:49.155Z,0.00
2018-05-16T02:23:49.052Z,0.00
2018-05-16T02:24:48.962Z,0.00
2018-05-16T02:25:48.859Z,0.00
2018-05-16T02:26:48.767Z,0.00
2018-05-16T02:27:48.664Z,0.00
2018-05-16T02:28:48.561Z,0.00
2018-05-16T02:29:48.470Z,0.00
2018-05-16T02:30:48.368Z,0.00
2018-05-16T02:31:48.265Z,4.00
2018-05-16T02:32:48.173Z,4.00
2018-05-16T02:33:48.069Z,4.00
2018-05-16T02:34:47.980Z,0.00
2018-05-16T02:35:47.877Z,4.00
2018-05-16T02:36:47.773Z,4.00
2018-05-16T02:37:47.686Z,4.00
2018-05-16T02:38:47.578Z,8.00
2018-05-16T02:39:47.488Z,4.00
2018-05-16T02:40:47.384Z,8.00
2018-05-16T02:41:47.282Z,4.00
2018-05-16T02:42:47.189Z,8.00
2018-05-16T02:43:47.086Z,8.00
2018-05-16T02:44:46.996Z,12.00
2018-05-16T02:45:46.893Z,12.00
2018-05-16T02:46:46.790Z,16.00
2018-05-16T02:47:46.698Z,20.00
2018-05-16T02:48:46.595Z,16.00
2018-05-16T02:49:46.506Z,20.00
2018-05-16T02:50:46.402Z,24.00
2018-05-16T02:51:46.298Z,24.00
2018-05-16T02:52:46.207Z,28.00
2018-05-16T02:53:46.103Z,32.00
2018-05-16T02:54:46.001Z,36.00
2018-05-16T02:55:45.910Z,44.00
2018-05-16T02:56:45.806Z,44.00
2018-05-16T02:57:45.715Z,52.00
2018-05-16T02:58:45.612Z,60.00
2018-05-16T02:59:45.509Z,64.00
2018-05-16T03:00:45.418Z,68.00
2018-05-16T03:01:45.314Z,76.00
2018-05-16T03:02:45.224Z,84.00
2018-05-16T03:03:45.133Z,96.00
2018-05-16T03:04:45.017Z,100.00
2018-05-16T03:05:44.926Z,108.00
2018-05-16T03:06:44.826Z,120.00
2018-05-16T03:07:44.722Z,136.00
2018-05-16T03:08:44.633Z,144.00
2018-05-16T03:09:44.525Z,156.00
2018-05-16T03:10:44.435Z,164.00
2018-05-16T03:11:44.332Z,172.00
2018-05-16T03:12:44.235Z,196.00
2018-05-16T03:13:44.137Z,212.00
2018-05-16T03:14:44.033Z,224.00
2018-05-16T03:15:43.946Z,232.00
2018-05-16T03:16:43.840Z,244.00
2018-05-16T03:17:43.737Z,248.00
2018-05-16T03:18:43.648Z,264.00
2018-05-16T03:19:43.541Z,276.00
2018-05-16T03:20:43.461Z,288.00
2018-05-16T03:21:43.349Z,304.00
2018-05-16T03:22:43.245Z,332.00
2018-05-16T03:23:43.154Z,356.00
2018-05-16T03:24:43.049Z,380.00
2018-05-16T03:25:42.953Z,416.00
2018-05-16T03:26:42.857Z,424.00
2018-05-16T03:27:42.753Z,456.00
2018-05-16T03:28:42.661Z,468.00
2018-05-16T03:29:42.559Z,496.00
2018-05-16T03:30:42.456Z,532.00
2018-05-16T03:31:42.365Z,548.00
2018-05-16T03:32:42.262Z,528.00
2018-05-16T03:33:42.173Z,572.00
2018-05-16T03:34:42.068Z,612.00
2018-05-16T03:35:41.964Z,616.00
2018-05-16T03:36:41.874Z,628.00
2018-05-16T03:37:41.771Z,704.00
2018-05-16T03:38:41.668Z,740.00
2018-05-16T03:39:41.575Z,816.00
2018-05-16T03:40:41.472Z,880.00
2018-05-16T03:41:41.383Z,900.00
2018-05-16T03:42:41.279Z,936.00
2018-05-16T03:43:41.175Z,980.00
2018-05-16T03:44:41.083Z,1024.00
2018-05-16T03:45:40.998Z,1132.00
2018-05-16T03:46:40.892Z,1108.00
2018-05-16T03:47:40.788Z,1188.00
2018-05-16T03:48:40.695Z,1280.00
2018-05-16T03:49:40.593Z,1372.00
2018-05-16T03:50:40.490Z,1512.00
2018-05-16T03:51:40.398Z,1368.00
2018-05-16T03:52:40.296Z,1444.00
2018-05-16T03:53:40.192Z,1496.00
2018-05-16T03:54:40.100Z,1628.00
2018-05-16T03:55:39.997Z,1740.00
2018-05-16T03:56:39.907Z,1824.00
2018-05-16T03:57:39.804Z,1868.00
2018-05-16T03:58:39.701Z,2000.00
2018-05-16T03:59:39.609Z,2192.00
2018-05-16T04:00:39.506Z,2148.00
2018-05-16T04:01:39.417Z,2160.00
2018-05-16T04:02:39.316Z,2344.00
2018-05-16T04:03:39.209Z,2444.00
2018-05-16T04:04:39.117Z,2488.00
2018-05-16T04:05:39.014Z,2572.00
2018-05-16T04:06:38.924Z,2576.00
2018-05-16T04:07:38.821Z,2584.00
2018-05-16T04:08:38.730Z,2676.00
2018-05-16T04:09:38.627Z,2792.00
2018-05-16T04:10:38.523Z,3080.00
2018-05-16T04:11:38.433Z,3020.00
2018-05-16T04:12:38.330Z,2968.00
2018-05-16T04:13:38.247Z,3016.00
2018-05-16T04:14:38.134Z,3020.00
2018-05-16T04:15:38.033Z,3148.00
2018-05-16T04:16:37.944Z,3108.00
2018-05-16T04:17:38.089Z,3076.00
2018-05-16T04:18:37.747Z,3068.00
2018-05-16T04:19:37.643Z,2896.00
2018-05-16T04:20:37.554Z,2808.00
2018-05-16T04:21:37.450Z,2844.00
2018-05-16T04:22:37.358Z,2884.00
2018-05-16T04:23:37.255Z,3124.00
2018-05-16T04:24:37.152Z,2992.00
2018-05-16T04:25:37.062Z,2876.00
2018-05-16T04:26:36.958Z,2960.00
2018-05-16T04:27:36.879Z,3376.00
2018-05-16T04:28:36.763Z,3592.00
2018-05-16T04:29:36.675Z,3640.00
2018-05-16T04:30:36.570Z,3792.00
2018-05-16T04:31:36.478Z,3832.00
2018-05-16T04:32:36.451Z,3952.00
2018-05-16T04:33:36.273Z,4204.00
2018-05-16T04:34:36.185Z,4280.00
2018-05-16T04:35:36.084Z,4244.00
2018-05-16T04:36:35.987Z,4316.00
2018-05-16T04:37:35.884Z,4332.00
2018-05-16T04:38:35.793Z,4540.00
2018-05-16T04:39:35.694Z,4648.00
2018-05-16T04:40:35.599Z,5068.00
2018-05-16T04:41:35.495Z,5356.00
2018-05-16T04:42:35.406Z,5744.00
2018-05-16T04:43:35.308Z,5940.00
2018-05-16T04:44:35.210Z,6068.00
2018-05-16T04:45:35.107Z,6200.00
2018-05-16T04:46:35.019Z,6252.00
2018-05-16T04:47:34.912Z,6216.00
2018-05-16T04:48:34.822Z,6256.00
2018-05-16T04:49:34.719Z,6248.00
2018-05-16T04:50:34.616Z,6084.00
2018-05-16T04:51:34.534Z,6032.00
2018-05-16T04:52:34.423Z,6276.00
2018-05-16T04:53:34.330Z,6232.00
2018-05-16T04:54:34.230Z,6352.00
2018-05-16T04:55:34.137Z,6356.00
2018-05-16T04:56:34.047Z,6284.00
2018-05-16T04:57:33.942Z,6256.00
2018-05-16T04:58:33.840Z,6332.00
2018-05-16T04:59:33.751Z,6504.00
2018-05-16T05:00:33.656Z,6496.00
2018-05-16T05:01:33.553Z,6264.00
2018-05-16T05:02:33.463Z,6060.00
2018-05-16T05:03:33.361Z,6356.00
2018-05-16T05:04:33.268Z,6568.00
2018-05-16T05:05:33.165Z,6960.00
2018-05-16T05:06:33.076Z,7016.00
2018-05-16T05:07:32.976Z,7076.00
2018-05-16T05:08:32.881Z,7048.00
2018-05-16T05:09:32.779Z,7044.00
2018-05-16T05:10:32.687Z,7120.00
2018-05-16T05:11:32.596Z,7080.00
2018-05-16T05:12:32.506Z,6972.00
2018-05-16T05:13:32.403Z,6808.00
2018-05-16T05:14:32.299Z,6812.00
2018-05-16T05:15:32.207Z,7024.00
2018-05-16T05:16:32.105Z,7000.00
2018-05-16T05:17:32.015Z,6972.00
2018-05-16T05:18:31.974Z,6940.00
2018-05-16T05:19:31.819Z,7244.00
2018-05-16T05:20:31.731Z,7644.00
2018-05-16T05:21:31.626Z,8048.00
2018-05-16T05:22:31.784Z,8740.00
2018-05-16T05:23:31.431Z,8764.00
2018-05-16T05:24:31.340Z,9088.00
2018-05-16T05:25:31.239Z,9348.00
2018-05-16T05:26:31.146Z,9432.00
2018-05-16T05:27:31.044Z,9428.00
2018-05-16T05:28:30.953Z,9320.00
2018-05-16T05:29:30.861Z,9076.00
2018-05-16T05:30:30.758Z,8640.00
2018-05-16T05:31:30.668Z,8152.00
2018-05-16T05:32:30.565Z,7736.00
2018-05-16T05:33:30.476Z,7452.00
2018-05-16T05:34:30.385Z,7160.00
2018-05-16T05:35:30.280Z,7112.00
2018-05-16T05:36:30.188Z,7268.00
2018-05-16T05:37:30.097Z,7668.00
2018-05-16T05:38:29.995Z,7504.00
2018-05-16T05:39:29.903Z,7724.00
2018-05-16T05:40:29.804Z,7608.00
2018-05-16T05:41:29.709Z,7636.00
2018-05-16T05:42:29.618Z,7772.00
2018-05-16T05:43:29.610Z,8020.00
2018-05-16T05:44:29.424Z,7884.00
2018-05-16T05:45:29.333Z,7992.00
2018-05-16T05:46:29.231Z,8676.00
2018-05-16T05:47:29.140Z,8356.00
2018-05-16T05:48:29.038Z,7740.00
2018-05-16T05:49:28.946Z,7560.00
2018-05-16T05:50:28.855Z,7284.00
2018-05-16T05:51:28.752Z,7252.00
2018-05-16T05:52:28.661Z,7104.00
2018-05-16T05:53:28.570Z,7008.00
2018-05-16T05:54:28.467Z,6936.00
2018-05-16T05:55:28.376Z,6768.00
2018-05-16T05:56:28.286Z,6744.00
2018-05-16T05:57:28.182Z,7044.00
2018-05-16T05:58:28.090Z,7008.00
2018-05-16T05:59:28.000Z,6832.00
2018-05-16T06:00:27.896Z,6628.00
2018-05-16T06:01:27.805Z,6576.00
2018-05-16T06:02:27.963Z,7124.00
2018-05-16T06:03:27.614Z,6812.00
2018-05-16T06:04:27.519Z,7444.00
2018-05-16T06:05:27.493Z,10212.00
2018-05-16T06:06:27.326Z,11360.00
2018-05-16T06:07:27.235Z,8580.00
2018-05-16T06:08:27.144Z,11564.00
2018-05-16T06:09:27.042Z,11488.00
2018-05-16T06:10:26.950Z,11760.00
2018-05-16T06:11:26.859Z,11760.00
2018-05-16T06:12:26.757Z,9664.00
2018-05-16T06:13:26.665Z,10752.00
2018-05-16T06:14:26.577Z,10448.00
2018-05-16T06:15:26.484Z,12092.00
2018-05-16T06:16:26.382Z,11340.00
2018-05-16T06:17:26.290Z,9776.00
2018-05-16T06:18:26.199Z,11848.00
2018-05-16T06:19:26.116Z,10304.00
2018-05-16T06:20:26.017Z,10864.00
2018-05-16T06:21:25.926Z,9656.00
2018-05-16T06:22:26.086Z,12244.00
2018-05-16T06:23:25.745Z,11584.00
2018-05-16T06:24:25.651Z,12848.00
2018-05-16T06:25:25.551Z,13032.00
2018-05-16T06:26:25.460Z,12660.00
2018-05-16T06:27:25.468Z,11456.00
2018-05-16T06:28:25.282Z,12912.00
2018-05-16T06:29:25.187Z,13764.00
2018-05-16T06:30:25.097Z,12916.00
2018-05-16T06:31:25.005Z,9008.00
2018-05-16T06:32:24.914Z,11428.00
2018-05-16T06:33:24.823Z,14360.00
2018-05-16T06:34:24.734Z,14984.00
2018-05-16T06:35:24.642Z,12256.00
2018-05-16T06:36:24.556Z,9292.00
2018-05-16T06:37:24.460Z,12028.00
2018-05-16T06:38:24.370Z,10900.00
2018-05-16T06:39:24.279Z,10156.00
2018-05-16T06:40:24.191Z,9460.00
2018-05-16T06:41:24.096Z,9472.00
2018-05-16T06:42:24.009Z,9732.00
2018-05-16T06:43:23.915Z,9464.00
2018-05-16T06:44:23.829Z,9696.00
2018-05-16T06:45:23.735Z,9712.00
2018-05-16T06:46:23.644Z,9900.00
2018-05-16T06:47:23.552Z,10072.00
2018-05-16T06:48:23.462Z,10432.00
2018-05-16T06:49:23.384Z,11160.00
2018-05-16T06:50:23.280Z,11860.00
2018-05-16T06:51:23.189Z,12792.00
2018-05-16T06:52:23.098Z,13524.00
2018-05-16T06:53:23.007Z,14184.00
2018-05-16T06:54:22.917Z,14396.00
2018-05-16T06:55:22.825Z,14376.00
2018-05-16T06:56:22.771Z,14500.00
2018-05-16T06:57:22.947Z,14484.00
2018-05-16T06:58:22.554Z,14728.00
2018-05-16T06:59:22.469Z,15280.00
2018-05-16T07:00:22.372Z,15936.00
2018-05-16T07:01:22.281Z,16316.00
2018-05-16T07:02:22.191Z,16104.00
2018-05-16T07:03:22.099Z,16140.00
2018-05-16T07:04:22.010Z,16448.00
2018-05-16T07:05:21.917Z,16756.00
2018-05-16T07:06:21.828Z,18176.00
2018-05-16T07:07:21.736Z,18144.00
2018-05-16T07:08:21.633Z,18592.00
2018-05-16T07:09:21.543Z,18848.00
2018-05-16T07:10:21.453Z,19808.00
2018-05-16T07:11:21.362Z,20960.00
2018-05-16T07:12:21.270Z,22592.00
2018-05-16T07:13:21.179Z,29696.00
2018-05-16T07:14:21.088Z,24416.00
2018-05-16T07:15:20.998Z,25056.00
2018-05-16T07:16:20.906Z,30560.00
2018-05-16T07:17:21.066Z,30208.00
2018-05-16T07:18:20.724Z,25664.00
2018-05-16T07:19:20.634Z,28704.00
2018-05-16T07:20:20.543Z,25664.00
2018-05-16T07:21:20.457Z,22208.00
2018-05-16T07:22:20.361Z,23488.00
2018-05-16T07:23:20.271Z,23584.00
2018-05-16T07:24:20.179Z,29760.00
2018-05-16T07:25:20.090Z,30912.00
2018-05-16T07:26:19.998Z,31360.00
2018-05-16T07:27:19.908Z,26912.00
2018-05-16T07:28:19.830Z,32640.00
2018-05-16T07:29:19.738Z,25248.00
2018-05-16T07:30:19.655Z,24992.00
2018-05-16T07:31:19.557Z,24608.00
2018-05-16T07:32:19.482Z,24000.00
2018-05-16T07:33:19.388Z,25536.00
2018-05-16T07:34:19.298Z,26048.00
2018-05-16T07:35:19.207Z,32896.00
2018-05-16T07:36:19.115Z,30272.00
2018-05-16T07:37:19.026Z,37152.00
2018-05-16T07:38:18.949Z,39584.00
2018-05-16T07:39:18.855Z,34976.00
2018-05-16T07:40:18.765Z,44512.00
2018-05-16T07:41:18.678Z,43776.00
2018-05-16T07:42:18.595Z,53472.00
2018-05-16T07:43:18.506Z,58496.00
2018-05-16T07:44:18.426Z,65824.00
2018-05-16T07:45:18.334Z,69216.00
2018-05-16T07:46:18.251Z,70624.00
2018-05-16T07:47:18.153Z,68768.00
2018-05-16T07:48:18.074Z,65152.00
2018-05-16T07:49:17.984Z,65120.00
2018-05-16T07:50:17.894Z,55040.00
2018-05-16T07:51:17.874Z,36096.00
2018-05-16T07:52:17.726Z,24704.00
2018-05-16T07:53:17.635Z,23424.00
2018-05-16T07:54:17.555Z,21760.00
2018-05-16T07:55:17.466Z,21344.00
2018-05-16T07:56:17.375Z,22048.00
2018-05-16T07:57:17.295Z,22976.00
2018-05-16T07:58:17.204Z,20928.00
2018-05-16T07:59:17.126Z,18848.00
2018-05-16T08:00:17.029Z,18080.00
2018-05-16T08:01:16.945Z,17440.00
2018-05-16T08:02:16.854Z,18112.00
2018-05-16T08:03:16.830Z,18656.00
2018-05-16T08:04:16.686Z,18816.00
2018-05-16T08:05:16.594Z,19936.00
2018-05-16T08:06:16.515Z,21216.00
2018-05-16T08:07:16.427Z,20640.00
2018-05-16T08:08:16.347Z,20128.00
2018-05-16T08:09:16.243Z,19136.00
2018-05-16T08:10:16.165Z,18080.00
2018-05-16T08:11:16.074Z,17856.00
2018-05-16T08:12:16.054Z,18656.00
2018-05-16T08:13:15.906Z,20160.00
2018-05-16T08:14:15.804Z,22368.00
2018-05-16T08:15:15.724Z,25088.00
2018-05-16T08:16:15.632Z,25888.00
2018-05-16T08:17:15.543Z,26784.00
2018-05-16T08:18:15.450Z,26912.00
2018-05-16T08:19:15.370Z,25600.00
2018-05-16T08:20:15.283Z,23392.00
2018-05-16T08:21:15.191Z,21472.00
2018-05-16T08:22:15.100Z,19520.00
2018-05-16T08:23:15.011Z,18944.00
2018-05-16T08:24:14.920Z,18784.00
2018-05-16T08:25:14.841Z,18656.00
2018-05-16T08:26:14.749Z,18240.00
2018-05-16T08:27:14.658Z,17632.00
2018-05-16T08:28:14.567Z,16728.00
2018-05-16T08:29:14.477Z,15708.00
2018-05-16T08:30:14.386Z,14580.00
2018-05-16T08:31:14.404Z,13684.00
2018-05-16T08:32:14.218Z,13500.00
2018-05-16T08:33:14.126Z,13460.00
2018-05-16T08:34:14.036Z,13724.00
2018-05-16T08:35:13.946Z,14120.00
2018-05-16T08:36:13.854Z,14976.00
2018-05-16T08:37:13.766Z,16044.00
2018-05-16T08:38:13.684Z,17760.00
2018-05-16T08:39:13.595Z,18624.00
2018-05-16T08:40:13.504Z,20480.00
2018-05-16T08:41:13.413Z,23648.00
2018-05-16T08:42:13.322Z,28704.00
2018-05-16T08:43:13.241Z,27872.00
2018-05-16T08:44:13.139Z,30272.00
2018-05-16T08:45:13.049Z,33376.00
2018-05-16T08:46:12.960Z,29056.00
2018-05-16T08:47:12.879Z,32096.00
2018-05-16T08:48:12.789Z,32608.00
2018-05-16T08:49:12.700Z,38336.00
2018-05-16T08:50:12.608Z,45504.00
2018-05-16T08:51:12.516Z,62176.00
2018-05-16T08:52:12.428Z,42080.00
2018-05-16T08:53:12.335Z,28128.00
2018-05-16T08:54:12.258Z,38592.00
2018-05-16T08:55:12.166Z,38688.00
2018-05-16T08:56:12.075Z,46176.00
2018-05-16T08:57:11.985Z,38336.00
2018-05-16T08:58:11.893Z,58400.00
2018-05-16T08:59:11.818Z,41632.00
2018-05-16T09:00:11.725Z,36512.00
2018-05-16T09:01:11.701Z,31328.00
2018-05-16T09:02:11.545Z,28512.00
2018-05-16T09:03:11.465Z,26304.00
2018-05-16T09:04:11.375Z,32992.00
2018-05-16T09:05:11.284Z,29952.00
2018-05-16T09:06:11.193Z,37728.00
2018-05-16T09:07:11.113Z,54592.00
2018-05-16T09:08:11.024Z,50432.00
2018-05-16T09:09:10.933Z,51904.00
2018-05-16T09:10:10.853Z,44128.00
2018-05-16T09:11:10.764Z,39584.00
2018-05-16T09:12:10.673Z,40512.00
2018-05-16T09:13:10.593Z,36096.00
2018-05-16T09:14:10.503Z,45568.00
2018-05-16T09:15:10.425Z,34784.00
2018-05-16T09:16:10.336Z,57888.00
2018-05-16T09:17:10.328Z,34912.00
2018-05-16T09:18:10.166Z,40864.00
2018-05-16T09:19:10.075Z,23008.00
2018-05-16T09:20:09.995Z,21056.00
2018-05-16T09:21:09.906Z,20256.00
2018-05-16T09:22:09.816Z,21376.00
2018-05-16T09:23:09.737Z,32512.00
2018-05-16T09:24:09.646Z,44288.00
2018-05-16T09:25:09.593Z,27456.00
2018-05-16T09:26:09.476Z,22304.00
2018-05-16T09:27:09.385Z,22592.00
2018-05-16T09:28:09.306Z,25856.00
2018-05-16T09:29:09.230Z,32480.00
2018-05-16T09:30:09.126Z,43360.00
2018-05-16T09:31:09.048Z,44288.00
2018-05-16T09:32:08.958Z,53184.00
2018-05-16T09:33:08.880Z,50848.00
2018-05-16T09:34:08.788Z,49600.00
2018-05-16T09:35:08.722Z,47680.00
2018-05-16T09:36:08.630Z,42496.00
2018-05-16T09:37:08.529Z,38688.00
2018-05-16T09:38:08.436Z,37408.00
2018-05-16T09:39:08.357Z,33440.00
2018-05-16T09:40:08.268Z,31168.00
2018-05-16T09:41:08.189Z,32160.00
2018-05-16T09:42:08.097Z,32000.00
2018-05-16T09:43:08.007Z,35424.00
2018-05-16T09:44:07.930Z,36672.00
2018-05-16T09:45:07.838Z,35008.00
2018-05-16T09:46:07.759Z,33728.00
2018-05-16T09:47:07.671Z,29856.00
2018-05-16T09:48:07.598Z,27136.00
2018-05-16T09:49:07.501Z,21728.00
2018-05-16T09:50:07.413Z,22400.00
2018-05-16T09:51:07.331Z,23968.00
2018-05-16T09:52:07.240Z,26016.00
2018-05-16T09:53:07.161Z,25984.00
2018-05-16T09:54:07.083Z,27136.00
2018-05-16T09:55:06.993Z,25472.00
2018-05-16T09:56:06.901Z,28640.00
2018-05-16T09:57:06.824Z,27648.00
2018-05-16T09:58:06.736Z,26752.00
2018-05-16T09:59:06.641Z,26592.00
2018-05-16T10:00:06.563Z,25856.00
2018-05-16T10:01:06.475Z,26560.00
2018-05-16T10:02:06.381Z,26784.00
2018-05-16T10:03:06.315Z,28064.00
2018-05-16T10:04:06.213Z,28320.00
2018-05-16T10:05:06.123Z,29216.00
2018-05-16T10:06:06.044Z,30240.00
2018-05-16T10:07:05.953Z,30528.00
2018-05-16T10:08:05.877Z,30848.00
2018-05-16T10:09:05.784Z,31104.00
2018-05-16T10:10:05.695Z,30240.00
2018-05-16T10:11:05.602Z,28256.00
2018-05-16T10:12:05.525Z,26464.00
2018-05-16T10:13:05.434Z,26208.00
2018-05-16T10:14:05.342Z,26944.00
2018-05-16T10:15:05.290Z,28896.00
2018-05-16T10:16:05.173Z,32096.00
2018-05-16T10:17:05.141Z,35168.00
2018-05-16T10:18:05.003Z,36704.00
2018-05-16T10:19:04.914Z,37824.00
2018-05-16T10:20:04.823Z,35616.00
2018-05-16T10:21:04.747Z,32896.00
2018-05-16T10:22:04.904Z,31264.00
2018-05-16T10:23:04.562Z,31680.00
2018-05-16T10:24:04.483Z,50432.00
2018-05-16T10:25:04.394Z,33248.00
2018-05-16T10:26:04.304Z,30976.00
2018-05-16T10:27:04.216Z,34240.00
2018-05-16T10:28:04.133Z,26592.00
2018-05-16T10:29:04.042Z,22592.00
2018-05-16T10:30:03.953Z,20672.00
2018-05-16T10:31:03.873Z,22208.00
2018-05-16T10:32:03.782Z,28736.00
2018-05-16T10:33:03.696Z,72864.00
2018-05-16T10:34:03.602Z,76992.00
2018-05-16T10:35:03.527Z,66368.00
2018-05-16T10:36:03.433Z,44128.00
2018-05-16T10:37:03.340Z,78688.00
2018-05-16T10:38:03.261Z,104736.00
2018-05-16T10:39:03.172Z,116512.00
2018-05-16T10:40:03.081Z,113632.00
2018-05-16T10:41:03.003Z,110016.00
2018-05-16T10:42:02.995Z,50144.00
2018-05-16T10:43:02.821Z,21792.00
2018-05-16T10:44:02.742Z,25664.00
2018-05-16T10:45:02.653Z,39744.00
2018-05-16T10:46:02.574Z,22272.00
2018-05-16T10:47:02.482Z,19456.00
2018-05-16T10:48:02.392Z,26464.00
2018-05-16T10:49:02.314Z,60896.00
2018-05-16T10:50:02.225Z,72832.00
2018-05-16T10:51:02.144Z,59360.00
2018-05-16T10:52:02.064Z,27776.00
2018-05-16T10:53:01.964Z,32320.00
2018-05-16T10:54:01.888Z,27424.00
2018-05-16T10:55:01.798Z,21248.00
2018-05-16T10:56:01.718Z,21472.00
2018-05-16T10:57:01.625Z,24000.00
2018-05-16T10:58:01.534Z,27168.00
2018-05-16T10:59:01.456Z,86848.00
2018-05-16T11:00:01.368Z,62464.00
2018-05-16T11:01:01.286Z,20832.00
2018-05-16T11:02:01.202Z,20128.00
2018-05-16T11:03:01.106Z,20928.00
2018-05-16T11:04:01.026Z,24128.00
2018-05-16T11:05:00.937Z,85856.00
2018-05-16T11:06:00.845Z,88416.00
2018-05-16T11:07:00.766Z,96704.00
2018-05-16T11:08:00.675Z,52288.00
2018-05-16T11:09:00.643Z,27168.00
2018-05-16T11:10:00.506Z,16188.00
2018-05-16T11:11:00.416Z,19104.00
2018-05-16T11:12:00.343Z,21056.00
2018-05-16T11:13:00.260Z,21024.00
2018-05-16T11:14:00.156Z,24032.00
2018-05-16T11:15:00.078Z,50048.00
2018-05-16T11:15:59.990Z,102400.00
2018-05-16T11:16:59.908Z,93824.00
2018-05-16T11:17:59.817Z,100192.00
2018-05-16T11:18:59.727Z,102752.00
2018-05-16T11:19:59.648Z,94400.00
2018-05-16T11:20:59.564Z,100192.00
2018-05-16T11:21:59.486Z,81952.00
2018-05-16T11:22:59.388Z,44000.00
2018-05-16T11:23:59.311Z,35136.00
2018-05-16T11:24:59.223Z,13608.00
2018-05-16T11:25:59.145Z,12644.00
2018-05-16T11:26:59.050Z,12604.00
2018-05-16T11:27:58.971Z,13340.00
2018-05-16T11:28:58.886Z,14768.00
2018-05-16T11:29:58.804Z,16748.00
2018-05-16T11:30:58.712Z,20224.00
2018-05-16T11:31:58.633Z,23040.00
2018-05-16T11:32:58.543Z,24640.00
2018-05-16T11:33:58.451Z,24352.00
2018-05-16T11:34:58.373Z,24544.00
2018-05-16T11:35:58.284Z,24064.00
2018-05-16T11:36:58.207Z,24224.00
2018-05-16T11:37:58.114Z,22944.00
2018-05-16T11:38:58.025Z,24096.00
2018-05-16T11:39:57.945Z,23424.00
2018-05-16T11:40:57.853Z,22176.00
2018-05-16T11:41:57.764Z,22688.00
2018-05-16T11:42:57.685Z,20256.00
2018-05-16T11:43:57.596Z,20288.00
2018-05-16T11:44:57.503Z,20480.00
2018-05-16T11:45:57.426Z,20224.00
2018-05-16T11:46:57.333Z,19680.00
2018-05-16T11:47:57.247Z,19872.00
2018-05-16T11:48:57.202Z,19328.00
2018-05-16T11:49:57.086Z,19616.00
2018-05-16T11:50:56.983Z,19840.00
2018-05-16T11:51:56.893Z,19552.00
2018-05-16T11:52:56.813Z,20544.00
2018-05-16T11:53:56.724Z,21056.00
2018-05-16T11:54:56.632Z,22976.00
2018-05-16T11:55:56.542Z,22912.00
2018-05-16T11:56:56.451Z,27584.00
2018-05-16T11:57:56.373Z,44032.00
2018-05-16T11:58:56.282Z,59360.00
2018-05-16T11:59:56.190Z,55840.00
2018-05-16T12:00:56.101Z,73856.00
2018-05-16T12:01:56.021Z,73280.00
2018-05-16T12:02:55.966Z,68960.00
2018-05-16T12:03:55.840Z,65920.00
2018-05-16T12:04:55.750Z,30752.00
2018-05-16T12:05:55.671Z,18240.00
2018-05-16T12:06:55.581Z,16860.00
2018-05-16T12:07:55.489Z,18720.00
2018-05-16T12:08:55.410Z,19840.00
2018-05-16T12:09:55.363Z,20928.00
2018-05-16T12:10:55.228Z,21952.00